Time;durP1;ratioP1;P1;durP2;ratioP2;P2;SDS_P1;SDS_P2;PMS_P1;PMS_P2;Temp;Humidity;BMP_temperature;BMP_pressure;BME280_temperature;BME280_humidity;BME280_pressure;Samples;Min_cycle;Max_cycle;Signal;HPM_P1;HPM_P2
2021/05/27 00:01:55;;;;;;;7.75;4.10;;;;;;;8.66;100.00;100426.47;20960237;28;20091;-70
2021/05/27 00:11:57;;;;;;;9.20;4.45;;;;;;;8.61;100.00;100427.59;20964958;28;20041;-70
2021/05/27 00:21:59;;;;;;;7.82;4.20;;;;;;;8.57;100.00;100429.50;20965249;28;20490;-70
2021/05/27 00:32:01;;;;;;;9.52;4.50;;;;;;;8.58;100.00;100431.22;20960936;28;20098;-70
2021/05/27 00:42:03;;;;;;;10.55;6.07;;;;;;;8.74;100.00;100447.84;20950829;28;20110;-70
2021/05/27 00:52:05;;;;;;;10.18;6.05;;;;;;;8.92;100.00;100459.19;20950016;28;20079;-70
2021/05/27 01:02:07;;;;;;;8.93;5.40;;;;;;;9.04;100.00;100461.22;20970486;28;20048;-70
2021/05/27 01:12:09;;;;;;;10.10;5.68;;;;;;;9.09;100.00;100464.50;20946475;28;20048;-70
2021/05/27 01:22:11;;;;;;;11.15;5.60;;;;;;;9.08;100.00;100460.19;20947448;28;20554;-70
2021/05/27 01:32:13;;;;;;;9.95;5.38;;;;;;;9.07;100.00;100471.53;20866951;28;20063;-70
2021/05/27 01:42:15;;;;;;;17.35;5.60;;;;;;;8.79;100.00;100465.88;20549850;28;20043;-70
2021/05/27 01:52:17;;;;;;;11.30;5.85;;;;;;;8.50;100.00;100455.03;20563068;28;20051;-70
2021/05/27 02:02:18;;;;;;;11.10;6.47;;;;;;;8.37;100.00;100455.66;20542670;28;20073;-70
2021/05/27 02:12:21;;;;;;;10.27;5.60;;;;;;;8.23;100.00;100457.97;20542759;28;20058;-70
2021/05/27 02:22:23;;;;;;;10.13;6.20;;;;;;;8.22;100.00;100462.34;20549346;28;20043;-70
2021/05/27 02:32:25;;;;;;;10.73;6.65;;;;;;;8.03;100.00;100477.91;20623477;28;20048;-70
2021/05/27 02:42:26;;;;;;;11.43;7.82;;;;;;;8.13;100.00;100470.53;20972016;28;20052;-70
2021/05/27 02:52:28;;;;;;;12.07;6.90;;;;;;;8.22;100.00;100480.59;20978887;28;20715;-70
2021/05/27 03:02:30;;;;;;;12.25;7.22;;;;;;;8.23;100.00;100477.06;20964550;28;20045;-70
2021/05/27 03:12:32;;;;;;;12.88;7.15;;;;;;;8.14;100.00;100477.47;20975945;28;20499;-69
2021/05/27 03:22:34;;;;;;;13.23;7.15;;;;;;;8.01;100.00;100468.47;20967824;28;20114;-69
2021/05/27 03:32:36;;;;;;;12.02;7.15;;;;;;;7.99;100.00;100471.13;20854437;28;20051;-69
2021/05/27 03:42:49;;;;;;;10.63;7.07;;;;;;;8.11;100.00;100483.66;20555814;28;20059;-70
2021/05/27 03:52:52;;;;;;;11.45;7.38;;;;;;;8.21;100.00;100481.50;20560798;28;20112;-70
2021/05/27 04:02:55;;;;;;;11.93;6.75;;;;;;;8.32;100.00;100500.19;20662291;28;20048;-70
2021/05/27 04:12:57;;;;;;;11.77;7.25;;;;;;;8.52;100.00;100492.34;20974976;28;20464;-70
2021/05/27 04:23:00;;;;;;;15.50;7.28;;;;;;;8.72;100.00;100495.81;20954448;28;20107;-70
2021/05/27 04:33:04;;;;;;;9.88;6.00;;;;;;;10.31;100.00;100497.69;20962369;28;20044;-70
2021/05/27 04:43:06;;;;;;;8.70;5.00;;;;;;;11.09;94.03;100498.69;20967346;28;20053;-70
2021/05/27 04:53:09;;;;;;;8.38;4.10;;;;;;;10.53;95.85;100514.78;20961515;28;20049;-70
2021/05/27 05:03:10;;;;;;;7.97;4.30;;;;;;;10.18;100.00;100519.22;20964781;28;20106;-69
2021/05/27 05:13:13;;;;;;;8.75;4.57;;;;;;;10.11;100.00;100525.66;20963916;28;20041;-70
2021/05/27 05:23:15;;;;;;;8.85;4.88;;;;;;;10.48;97.75;100539.50;20926150;28;20053;-69
2021/05/27 05:33:17;;;;;;;8.60;4.80;;;;;;;10.85;97.22;100527.97;20945756;28;20098;-69
2021/05/27 05:43:18;;;;;;;8.10;4.43;;;;;;;10.96;93.81;100539.56;20937674;28;20483;-70
2021/05/27 05:53:22;;;;;;;9.32;4.13;;;;;;;10.69;96.10;100538.41;20969996;28;20066;-70
2021/05/27 06:03:24;;;;;;;8.40;4.30;;;;;;;10.97;92.32;100538.63;20944408;28;20045;-70
2021/05/27 06:13:26;;;;;;;10.40;3.85;;;;;;;11.56;88.13;100539.75;20916678;28;1478162;-69
2021/05/27 06:23:28;;;;;;;8.93;4.25;;;;;;;11.52;89.50;100549.56;20978620;28;20407;-69
2021/05/27 06:33:29;;;;;;;11.05;3.58;;;;;;;11.51;85.74;100565.38;20825511;28;20155;-69
2021/05/27 06:43:31;;;;;;;5.00;2.90;;;;;;;12.05;85.90;100558.81;20560265;28;20496;-69
2021/05/27 06:53:34;;;;;;;9.07;3.05;;;;;;;12.36;82.73;100558.72;20566756;28;20047;-72
2021/05/27 07:03:35;;;;;;;6.60;2.90;;;;;;;12.55;79.66;100560.25;20703424;28;20036;-70
2021/05/27 07:13:37;;;;;;;7.43;2.90;;;;;;;12.93;78.91;100558.78;20978484;28;20390;-70
2021/05/27 07:23:39;;;;;;;7.70;2.80;;;;;;;13.19;75.28;100571.19;20968572;28;20041;-70
2021/05/27 07:33:42;;;;;;;5.63;2.13;;;;;;;12.93;75.18;100566.66;20834358;28;20459;-70
2021/05/27 07:43:43;;;;;;;8.45;2.80;;;;;;;12.74;73.71;100573.97;20559725;28;20402;-70
2021/05/27 07:53:45;;;;;;;6.30;2.67;;;;;;;13.98;67.40;100560.81;20540604;28;20054;-73
2021/05/27 08:03:47;;;;;;;9.85;2.45;;;;;;;13.44;70.22;100570.50;20708595;28;20094;-70
2021/05/27 08:13:49;;;;;;;6.35;2.35;;;;;;;13.36;70.52;100583.25;20961750;28;20410;-71
2021/05/27 08:23:51;;;;;;;5.57;2.15;;;;;;;12.81;71.19;100586.63;20961355;28;20106;-71
2021/05/27 08:33:52;;;;;;;5.15;2.10;;;;;;;13.19;71.78;100592.22;20967706;28;20559;-72
2021/05/27 08:43:54;;;;;;;5.38;2.20;;;;;;;13.39;70.20;100593.59;20957858;28;20123;-69
2021/05/27 08:53:56;;;;;;;9.02;2.33;;;;;;;13.74;69.19;100591.38;20953028;28;20378;-70
2021/05/27 09:03:58;;;;;;;6.45;2.20;;;;;;;13.48;69.84;100608.78;20959830;28;20045;-71
2021/05/27 09:14:01;;;;;;;4.55;2.17;;;;;;;13.19;72.20;100612.41;20956130;28;20357;-73
2021/05/27 09:24:03;;;;;;;5.70;2.03;;;;;;;12.99;72.62;100621.47;20953032;28;20049;-75
2021/05/27 09:34:06;;;;;;;7.20;1.73;;;;;;;13.13;71.36;100624.13;20981482;28;20052;-73
2021/05/27 09:44:08;;;;;;;4.50;1.80;;;;;;;13.12;70.63;100627.69;20971388;28;20102;-73
2021/05/27 09:54:10;;;;;;;5.85;2.00;;;;;;;13.48;69.49;100623.72;20979605;28;20044;-73
2021/05/27 10:04:14;;;;;;;4.97;1.65;;;;;;;13.47;69.51;100620.25;20981750;28;20049;-73
2021/05/27 10:14:16;;;;;;;3.83;1.80;;;;;;;13.59;68.97;100626.53;20959097;28;20071;-73
2021/05/27 10:24:19;;;;;;;5.43;1.80;;;;;;;13.78;70.03;100628.84;20934623;28;20114;-74
2021/05/27 10:34:45;;;;;;;5.03;2.05;;;;;;;14.36;67.11;100628.53;20760549;28;20100;-73
2021/05/27 10:45:09;;;;;;;6.22;1.70;;;;;;;14.47;62.40;100621.66;20542508;28;20468;-73
2021/05/27 10:55:51;;;;;;;4.18;1.40;;;;;;;14.59;61.44;100612.06;20519594;28;20050;-73
2021/05/27 11:06:17;;;;;;;3.25;1.15;;;;;;;15.51;59.51;100620.59;20791675;28;20052;-73
2021/05/27 11:16:18;;;;;;;3.92;1.67;;;;;;;15.40;58.81;100620.47;20980133;28;20276;-73
2021/05/27 11:26:20;;;;;;;2.75;1.17;;;;;;;16.11;57.05;100611.81;20991920;28;20045;-74
2021/05/27 11:36:26;;;;;;;2.72;1.17;;;;;;;16.60;55.06;100611.69;20973993;28;20493;-74
2021/05/27 11:46:29;;;;;;;3.03;1.30;;;;;;;16.50;53.47;100610.69;20962602;28;20132;-74
2021/05/27 11:56:38;;;;;;;3.00;1.40;;;;;;;15.92;55.15;100601.78;20974566;28;20044;-74
2021/05/27 12:07:07;;;;;;;5.05;1.55;;;;;;;15.97;55.00;100609.38;20981826;28;20079;-74
2021/05/27 12:17:24;;;;;;;4.10;1.27;;;;;;;16.24;54.05;100604.69;20968189;28;20040;-74
2021/05/27 12:27:40;;;;;;;3.90;1.55;;;;;;;16.03;53.50;100603.63;20959249;28;20105;-73
2021/05/27 12:37:46;;;;;;;4.63;1.58;;;;;;;16.59;53.23;100599.44;20971872;28;20044;-74
2021/05/27 12:48:14;;;;;;;2.75;1.08;;;;;;;16.70;53.03;100604.75;20966128;28;20040;-72
2021/05/27 12:58:30;;;;;;;4.00;1.15;;;;;;;16.72;51.37;100594.88;20962489;28;20056;-73
2021/05/27 13:08:34;;;;;;;3.15;1.00;;;;;;;16.58;51.61;100603.88;20955758;28;20105;-71
2021/05/27 13:18:49;;;;;;;3.90;1.20;;;;;;;17.03;51.64;100599.50;20951183;28;20049;-71
2021/05/27 13:29:04;;;;;;;1.55;0.85;;;;;;;16.61;50.17;100619.50;20963131;28;20048;-72
2021/05/27 13:39:17;;;;;;;2.80;1.00;;;;;;;16.11;52.11;100615.31;20968666;28;20041;-71
2021/05/27 13:49:20;;;;;;;3.45;1.20;;;;;;;16.07;52.58;100613.00;20981800;28;20045;-71
2021/05/27 13:59:22;;;;;;;5.18;1.38;;;;;;;16.74;50.87;100619.41;20962591;28;20064;-71
2021/05/27 14:09:24;;;;;;;2.88;1.00;;;;;;;16.71;52.01;100619.63;20966420;28;20040;-73
2021/05/27 14:19:27;;;;;;;8.15;1.40;;;;;;;16.49;53.76;100622.19;20965589;28;20045;-71
2021/05/27 14:29:31;;;;;;;6.30;1.52;;;;;;;16.73;55.16;100633.59;20974680;28;20045;-72
2021/05/27 14:39:32;;;;;;;2.75;1.20;;;;;;;16.68;51.58;100646.31;20977282;28;20048;-72
2021/05/27 14:49:35;;;;;;;4.63;1.60;;;;;;;16.87;51.69;100641.31;20949395;28;20536;-71
2021/05/27 14:59:36;;;;;;;2.67;1.30;;;;;;;16.38;52.75;100638.84;20977480;28;20094;-72
2021/05/27 15:09:38;;;;;;;2.38;1.00;;;;;;;16.73;52.71;100644.16;20971068;28;20045;-72
2021/05/27 15:19:41;;;;;;;2.65;1.05;;;;;;;16.70;52.80;100648.84;20956248;28;20442;-70
2021/05/27 15:29:42;;;;;;;4.53;1.05;;;;;;;17.10;50.84;100653.63;20983832;28;20044;-70
2021/05/27 15:39:44;;;;;;;3.33;1.10;;;;;;;16.46;50.99;100652.31;20975779;28;20037;-70
2021/05/27 15:49:46;;;;;;;4.22;1.27;;;;;;;16.36;52.83;100661.88;20975426;28;20072;-70
2021/05/27 15:59:48;;;;;;;2.58;1.13;;;;;;;15.93;54.09;100658.91;20971545;28;20044;-70
2021/05/27 16:09:50;;;;;;;4.10;1.10;;;;;;;14.80;61.41;100699.38;20967444;28;20489;-70
2021/05/27 16:19:52;;;;;;;3.08;1.20;;;;;;;14.10;76.26;100702.16;20972177;28;20245;-68
2021/05/27 16:29:53;;;;;;;3.83;1.40;;;;;;;14.01;79.79;100688.75;20982175;28;20044;-69
2021/05/27 16:39:55;;;;;;;3.58;1.40;;;;;;;14.05;78.05;100684.97;20552285;28;20280;-69
2021/05/27 16:49:57;;;;;;;2.53;1.30;;;;;;;14.56;77.26;100688.69;20583882;28;20042;-69
2021/05/27 16:59:59;;;;;;;5.50;1.75;;;;;;;14.54;75.63;100683.50;20545526;28;20065;-73
2021/05/27 17:10:00;;;;;;;3.10;1.35;;;;;;;14.59;73.86;100677.09;20950591;28;20498;-72
2021/05/27 17:20:04;;;;;;;2.80;1.30;;;;;;;14.62;71.96;100667.19;20955930;28;20063;-73
2021/05/27 17:30:07;;;;;;;2.17;1.23;;;;;;;15.65;69.21;100667.94;20963547;28;20049;-74
2021/05/27 17:40:11;;;;;;;5.18;1.23;;;;;;;15.54;69.15;100674.97;20964794;28;20049;-74
2021/05/27 17:50:15;;;;;;;2.00;1.10;;;;;;;15.03;71.33;100682.88;20968815;28;20102;-74
2021/05/27 18:00:20;;;;;;;4.50;1.53;;;;;;;14.66;74.01;100689.75;20957216;28;20539;-74
2021/05/27 18:10:24;;;;;;;4.50;1.52;;;;;;;14.60;74.15;100691.94;20937625;28;20048;-74
2021/05/27 18:20:26;;;;;;;4.30;1.73;;;;;;;14.54;76.49;100696.69;20981687;28;20049;-74
2021/05/27 18:30:30;;;;;;;3.75;1.77;;;;;;;14.28;78.50;100701.91;20981406;28;20099;-74
2021/05/27 18:40:32;;;;;;;5.63;1.63;;;;;;;14.06;80.11;100702.47;20990750;28;20507;-74
2021/05/27 18:50:35;;;;;;;3.47;1.73;;;;;;;13.96;82.24;100709.25;20972342;28;20101;-74
2021/05/27 19:00:38;;;;;;;5.40;2.15;;;;;;;13.84;83.02;100716.13;20989033;28;20559;-74
2021/05/27 19:10:41;;;;;;;4.35;2.70;;;;;;;13.74;83.41;100714.16;20979800;28;20041;-73
2021/05/27 19:20:43;;;;;;;5.10;2.38;;;;;;;13.63;83.13;100718.31;20964221;28;20044;-74
2021/05/27 19:30:44;;;;;;;4.57;2.40;;;;;;;13.59;85.33;100737.84;20943054;28;20294;-74
2021/05/27 19:40:46;;;;;;;4.80;2.70;;;;;;;13.46;85.29;100746.59;20569631;28;20043;-72
2021/05/27 19:50:48;;;;;;;5.63;3.40;;;;;;;13.17;86.83;100746.53;20553608;28;20047;-73
2021/05/27 20:00:52;;;;;;;5.32;3.03;;;;;;;13.13;85.53;100759.94;20554348;28;20111;-73
2021/05/27 20:10:54;;;;;;;5.15;2.75;;;;;;;12.94;86.88;100762.78;20947227;28;20175;-73
2021/05/27 20:20:57;;;;;;;5.75;3.28;;;;;;;12.67;90.64;100772.25;20946326;28;20045;-73
2021/05/27 20:30:58;;;;;;;5.95;3.42;;;;;;;12.37;91.69;100772.19;20933981;28;20050;-73
2021/05/27 20:41:00;;;;;;;9.35;4.28;;;;;;;12.07;94.40;100784.38;20565397;28;20063;-73
2021/05/27 20:51:02;;;;;;;9.82;4.78;;;;;;;11.94;94.49;100782.41;20561118;28;20523;-71
2021/05/27 21:01:03;;;;;;;5.32;3.30;;;;;;;11.85;95.35;100777.66;20603031;28;20049;-73
2021/05/27 21:11:05;;;;;;;9.25;3.40;;;;;;;11.69;94.72;100786.38;20983979;28;20040;-72
2021/05/27 21:21:07;;;;;;;10.70;5.18;;;;;;;11.70;95.35;100786.31;20978581;28;20499;-72
2021/05/27 21:31:09;;;;;;;8.50;5.10;;;;;;;11.60;94.01;100798.19;20919700;28;20051;-72
2021/05/27 21:41:11;;;;;;;6.25;3.50;;;;;;;11.70;93.52;100803.81;20562993;28;20400;-72
2021/05/27 21:51:13;;;;;;;4.70;2.78;;;;;;;11.67;93.86;100806.59;20527220;28;20104;-74
2021/05/27 22:01:16;;;;;;;4.85;2.58;;;;;;;11.72;95.06;100818.56;20549903;28;20136;-72
2021/05/27 22:11:17;;;;;;;8.00;4.30;;;;;;;11.56;94.05;100849.09;20943779;28;20048;-72
2021/05/27 22:21:19;;;;;;;8.68;5.63;;;;;;;11.71;95.57;100853.56;20968084;28;20052;-72
2021/05/27 22:31:21;;;;;;;12.05;7.65;;;;;;;11.63;98.86;100860.94;20957435;28;20461;-72
2021/05/27 22:41:23;;;;;;;15.32;9.65;;;;;;;11.52;100.00;100873.78;20900800;28;20048;-72
2021/05/27 22:51:25;;;;;;;13.85;9.45;;;;;;;11.58;97.26;100862.97;20917259;28;20052;-71
2021/05/27 23:01:27;;;;;;;19.20;9.45;;;;;;;11.57;94.07;100863.91;20928792;28;20364;-70
2021/05/27 23:11:29;;;;;;;14.73;7.38;;;;;;;11.27;93.13;100868.06;20915994;28;20060;-71
2021/05/27 23:21:31;;;;;;;15.93;8.90;;;;;;;11.27;93.07;100882.03;20929979;28;20471;-74
2021/05/27 23:31:33;;;;;;;13.95;7.95;;;;;;;11.27;94.15;100875.94;20887127;28;20046;-72
2021/05/27 23:41:35;;;;;;;13.77;8.82;;;;;;;11.19;94.28;100878.06;20562276;28;20047;-73
2021/05/27 23:51:37;;;;;;;13.45;7.53;;;;;;;11.15;95.35;100880.00;20552233;28;20070;-73
